Time;durP1;ratioP1;P1;durP2;ratioP2;P2;SDS_P1;SDS_P2;PMS_P1;PMS_P2;Temp;Humidity;BMP_temperature;BMP_pressure;BME280_temperature;BME280_humidity;BME280_pressure;Samples;Min_cycle;Max_cycle;Signal;HPM_P1;HPM_P2
2021/06/06 00:01:19;;;;;;;1.50;1.27;;;13.80;99.90;;;;;;5045194;28;20229;-92
2021/06/06 00:03:49;;;;;;;2.40;1.63;;;13.90;99.90;;;;;;5062694;28;20206;-90
2021/06/06 00:06:19;;;;;;;1.33;1.20;;;13.80;99.90;;;;;;5064348;28;20230;-90
2021/06/06 00:08:45;;;;;;;2.60;1.48;;;13.80;99.90;;;;;;5063858;28;20198;-92
2021/06/06 00:11:16;;;;;;;1.48;1.20;;;13.80;99.90;;;;;;5054004;28;20282;-90
2021/06/06 00:13:46;;;;;;;1.73;1.20;;;13.80;99.90;;;;;;5061970;28;20213;-91
2021/06/06 00:16:17;;;;;;;1.30;1.20;;;13.80;99.90;;;;;;5074212;28;20304;-91
2021/06/06 00:18:45;;;;;;;1.30;1.13;;;13.70;99.90;;;;;;5063201;28;20261;-92
2021/06/06 00:21:12;;;;;;;1.40;1.30;;;13.70;99.90;;;;;;5063625;28;20198;-90
2021/06/06 00:23:39;;;;;;;1.25;1.15;;;13.60;99.90;;;;;;5050347;28;20209;-91
2021/06/06 00:26:07;;;;;;;2.10;1.30;;;13.70;99.90;;;;;;5050709;28;20282;-91
2021/06/06 00:28:34;;;;;;;1.58;1.48;;;13.70;99.90;;;;;;5059665;28;20202;-90
2021/06/06 00:31:03;;;;;;;1.52;1.42;;;13.70;99.90;;;;;;5056012;28;20272;-90
2021/06/06 00:36:14;;;;;;;1.55;1.45;;;13.70;99.90;;;;;;5058489;28;20229;-90
2021/06/06 00:38:41;;;;;;;3.35;1.35;;;13.70;99.90;;;;;;5050991;28;20206;-90
2021/06/06 00:41:08;;;;;;;3.05;1.58;;;13.70;99.90;;;;;;5053336;28;20223;-89
2021/06/06 00:43:35;;;;;;;1.45;1.35;;;13.70;99.90;;;;;;5033158;28;20257;-90
2021/06/06 00:46:02;;;;;;;1.60;1.50;;;13.70;99.90;;;;;;5054865;28;20294;-89
2021/06/06 00:48:31;;;;;;;2.17;1.40;;;13.80;99.90;;;;;;5051722;28;20203;-91
2021/06/06 00:51:00;;;;;;;5.63;1.50;;;13.80;99.90;;;;;;5060247;28;20228;-90
2021/06/06 00:53:33;;;;;;;1.42;1.33;;;13.80;99.90;;;;;;5059760;28;20613;-89
2021/06/06 00:56:00;;;;;;;3.42;1.60;;;13.80;99.90;;;;;;5046594;28;20230;-89
2021/06/06 00:58:27;;;;;;;2.28;1.52;;;13.80;99.90;;;;;;5028473;28;20229;-90
2021/06/06 01:00:54;;;;;;;3.08;1.45;;;13.80;99.90;;;;;;5027479;28;20234;-90
2021/06/06 01:03:23;;;;;;;2.30;1.45;;;13.80;99.90;;;;;;5008991;28;20206;-90
2021/06/06 01:05:56;;;;;;;1.88;1.30;;;13.80;99.90;;;;;;5030780;28;20231;-90
2021/06/06 01:08:23;;;;;;;2.88;1.50;;;13.70;99.90;;;;;;5031909;28;20198;-90
2021/06/06 01:10:54;;;;;;;3.67;1.40;;;13.80;99.90;;;;;;5028860;28;20234;-91
2021/06/06 01:13:26;;;;;;;6.88;1.60;;;13.80;99.90;;;;;;5029944;28;20205;-90
2021/06/06 01:15:58;;;;;;;1.95;1.73;;;13.80;99.90;;;;;;5030349;28;20640;-90
2021/06/06 01:18:28;;;;;;;1.42;1.33;;;13.80;99.90;;;;;;5018304;28;20207;-90
2021/06/06 01:21:13;;;;;;;1.52;1.42;;;13.90;99.90;;;;;;5029561;28;20230;-91
2021/06/06 01:24:03;;;;;;;1.60;1.50;;;13.90;99.90;;;;;;5013959;28;20203;-90
2021/06/06 01:26:33;;;;;;;1.67;1.40;;;13.80;99.90;;;;;;5031322;28;20687;-90
2021/06/06 01:29:06;;;;;;;1.67;1.40;;;13.80;99.90;;;;;;5026370;28;20207;-91
2021/06/06 01:31:36;;;;;;;1.40;1.30;;;13.80;99.90;;;;;;5024227;28;20230;-91
2021/06/06 01:34:06;;;;;;;3.40;1.48;;;13.80;99.90;;;;;;5034506;28;20217;-90
2021/06/06 01:36:36;;;;;;;1.98;1.60;;;13.90;99.90;;;;;;5030306;28;20241;-91
2021/06/06 01:39:08;;;;;;;1.30;1.20;;;13.80;99.90;;;;;;5032022;28;20214;-90
2021/06/06 01:41:51;;;;;;;1.75;1.50;;;13.80;99.90;;;;;;5031214;28;20233;-90
2021/06/06 01:44:22;;;;;;;2.00;1.77;;;13.80;99.90;;;;;;5022290;28;20302;-90
2021/06/06 01:46:53;;;;;;;2.97;1.38;;;13.80;99.90;;;;;;5007750;28;20227;-90
2021/06/06 01:49:22;;;;;;;3.92;1.65;;;13.80;99.90;;;;;;5023814;28;20265;-91
2021/06/06 01:51:53;;;;;;;3.45;1.60;;;13.80;99.90;;;;;;5033345;28;20289;-91
2021/06/06 01:54:23;;;;;;;1.50;1.40;;;13.90;99.90;;;;;;5034485;28;20231;-91
2021/06/06 01:56:51;;;;;;;1.88;1.48;;;13.80;99.90;;;;;;5032328;28;20634;-91
2021/06/06 01:59:24;;;;;;;3.80;1.80;;;13.80;99.90;;;;;;5024559;28;20990;-90
2021/06/06 02:01:51;;;;;;;1.77;1.40;;;13.80;99.90;;;;;;5039832;28;20199;-91
2021/06/06 02:04:21;;;;;;;2.35;1.58;;;13.80;99.90;;;;;;5033446;28;20207;-90
2021/06/06 02:06:52;;;;;;;2.20;1.60;;;13.80;99.90;;;;;;5017298;28;20218;-90
2021/06/06 02:09:24;;;;;;;1.63;1.52;;;13.80;99.90;;;;;;5033998;28;20214;-90
2021/06/06 02:11:53;;;;;;;1.90;1.60;;;13.80;99.90;;;;;;5036432;28;20271;-90
2021/06/06 02:14:24;;;;;;;1.70;1.60;;;13.80;99.90;;;;;;5021533;28;20199;-89
2021/06/06 02:16:54;;;;;;;1.67;1.50;;;13.70;99.90;;;;;;5034631;28;20321;-91
2021/06/06 02:19:24;;;;;;;2.40;1.75;;;13.70;99.90;;;;;;5034612;28;20207;-90
2021/06/06 02:21:51;;;;;;;1.92;1.50;;;13.70;99.90;;;;;;5041023;28;20210;-90
2021/06/06 02:24:17;;;;;;;2.70;1.75;;;13.80;99.90;;;;;;5027472;28;20223;-90
2021/06/06 02:26:50;;;;;;;1.50;1.40;;;13.80;99.90;;;;;;5019935;28;20594;-90
2021/06/06 02:29:23;;;;;;;2.08;1.98;;;13.80;99.90;;;;;;5022635;28;20209;-90
2021/06/06 02:31:57;;;;;;;1.95;1.65;;;13.70;99.90;;;;;;5025741;28;20213;-90
2021/06/06 02:34:28;;;;;;;3.03;1.85;;;13.70;99.90;;;;;;5028423;28;20199;-91
2021/06/06 02:36:56;;;;;;;1.52;1.42;;;13.70;99.90;;;;;;5032947;28;20199;-90
2021/06/06 02:39:27;;;;;;;2.28;1.70;;;13.80;99.90;;;;;;5030725;28;20287;-90
2021/06/06 02:42:01;;;;;;;2.85;1.70;;;13.80;99.90;;;;;;5037994;28;20206;-89
2021/06/06 02:44:33;;;;;;;1.70;1.60;;;13.80;99.90;;;;;;5019040;28;20226;-90
2021/06/06 02:47:01;;;;;;;1.50;1.40;;;13.80;99.90;;;;;;5032125;28;20233;-91
2021/06/06 02:49:30;;;;;;;1.60;1.50;;;13.80;99.90;;;;;;5025519;28;20400;-90
2021/06/06 02:52:01;;;;;;;3.10;1.52;;;13.80;99.90;;;;;;5031664;28;20207;-89
2021/06/06 02:54:33;;;;;;;2.05;1.33;;;13.80;99.90;;;;;;5024229;28;20238;-90
2021/06/06 02:57:08;;;;;;;4.20;1.40;;;13.80;99.90;;;;;;5029805;28;20250;-91
2021/06/06 02:59:38;;;;;;;1.48;1.35;;;13.90;99.90;;;;;;5027767;28;20592;-90
2021/06/06 03:02:07;;;;;;;3.20;1.45;;;13.90;99.90;;;;;;5026564;28;20209;-90
2021/06/06 03:04:41;;;;;;;1.63;1.40;;;13.80;99.90;;;;;;5039623;28;20230;-90
2021/06/06 03:07:11;;;;;;;1.40;1.30;;;13.80;99.90;;;;;;5008081;28;20222;-91
2021/06/06 03:09:38;;;;;;;1.50;1.27;;;13.80;99.90;;;;;;5029158;28;20707;-91
2021/06/06 03:12:09;;;;;;;1.73;1.30;;;13.80;99.90;;;;;;5027917;28;20297;-90
2021/06/06 03:14:39;;;;;;;1.65;1.30;;;13.80;99.90;;;;;;5030073;28;20236;-91
2021/06/06 03:17:09;;;;;;;1.42;1.33;;;13.80;99.90;;;;;;5029529;28;20210;-90
2021/06/06 03:19:39;;;;;;;1.40;1.30;;;13.80;99.90;;;;;;5038901;28;20278;-92
2021/06/06 03:22:09;;;;;;;1.70;1.30;;;13.80;99.90;;;;;;5029866;28;20227;-91
2021/06/06 03:24:39;;;;;;;1.58;1.30;;;13.80;99.90;;;;;;5025010;28;20313;-90
2021/06/06 03:27:09;;;;;;;2.85;1.30;;;13.90;99.90;;;;;;5026632;28;20230;-90
2021/06/06 03:29:48;;;;;;;1.52;1.30;;;13.90;99.90;;;;;;5032552;28;20227;-91
2021/06/06 03:32:15;;;;;;;2.65;1.48;;;13.90;99.90;;;;;;5023195;28;20202;-91
2021/06/06 03:34:42;;;;;;;2.35;1.50;;;13.90;99.90;;;;;;5029714;28;20230;-90
2021/06/06 03:37:08;;;;;;;1.50;1.40;;;13.80;99.90;;;;;;5047359;28;20215;-90
2021/06/06 03:39:34;;;;;;;1.25;1.20;;;13.80;99.90;;;;;;5038888;28;20750;-90
2021/06/06 03:42:02;;;;;;;2.17;1.67;;;13.90;99.90;;;;;;5031791;28;20210;-90
2021/06/06 03:44:30;;;;;;;1.88;1.35;;;13.90;99.90;;;;;;5036048;28;20238;-89
2021/06/06 03:46:57;;;;;;;2.78;1.45;;;14.00;99.90;;;;;;5031499;28;20814;-90
2021/06/06 03:49:24;;;;;;;2.85;1.80;;;14.00;99.90;;;;;;5031823;28;20274;-89
2021/06/06 03:51:52;;;;;;;4.20;1.88;;;13.90;99.90;;;;;;5038467;28;20226;-91
2021/06/06 03:54:20;;;;;;;1.90;1.60;;;13.90;99.90;;;;;;5047682;28;20281;-90
2021/06/06 03:56:48;;;;;;;1.50;1.40;;;13.80;99.90;;;;;;5040921;28;20215;-91
2021/06/06 04:01:59;;;;;;;2.08;1.50;;;13.80;99.90;;;;;;5033634;28;20286;-92
2021/06/06 04:04:26;;;;;;;1.90;1.40;;;13.90;99.90;;;;;;5026937;28;20203;-92
2021/06/06 04:06:52;;;;;;;1.70;1.40;;;13.90;99.90;;;;;;5011867;28;20227;-90
2021/06/06 04:09:19;;;;;;;2.22;1.42;;;13.90;99.90;;;;;;5029824;28;20230;-91
2021/06/06 04:11:45;;;;;;;2.83;1.50;;;13.90;99.90;;;;;;5031790;28;20203;-92
2021/06/06 04:14:11;;;;;;;1.75;1.42;;;13.90;99.90;;;;;;5034621;28;20207;-90
2021/06/06 04:16:38;;;;;;;1.67;1.40;;;13.80;99.90;;;;;;5029405;28;20196;-90
2021/06/06 04:19:06;;;;;;;1.50;1.40;;;13.80;99.90;;;;;;5029472;28;20230;-90
2021/06/06 04:21:34;;;;;;;3.80;1.52;;;13.80;99.90;;;;;;5038647;28;20270;-91
2021/06/06 04:24:01;;;;;;;1.58;1.42;;;13.80;99.90;;;;;;5029841;28;20199;-91
2021/06/06 04:26:28;;;;;;;2.22;1.15;;;13.90;99.90;;;;;;5031392;28;20269;-91
2021/06/06 04:28:55;;;;;;;1.50;1.20;;;13.90;99.90;;;;;;5035192;28;20253;-90
2021/06/06 04:31:21;;;;;;;1.42;1.20;;;13.90;99.90;;;;;;5028396;28;20235;-90
2021/06/06 04:33:48;;;;;;;1.98;1.30;;;13.90;99.90;;;;;;5027911;28;20207;-90
2021/06/06 04:36:16;;;;;;;2.85;1.33;;;13.90;99.90;;;;;;5031506;28;20282;-90
2021/06/06 04:38:43;;;;;;;2.75;1.25;;;13.90;99.90;;;;;;5030084;28;20199;-91
2021/06/06 04:41:12;;;;;;;1.55;1.27;;;13.90;99.90;;;;;;5032684;28;20219;-90
2021/06/06 04:43:39;;;;;;;3.00;1.38;;;13.90;99.90;;;;;;5025746;28;20198;-90
2021/06/06 04:46:06;;;;;;;1.83;1.20;;;14.00;99.90;;;;;;5030607;28;20245;-90
2021/06/06 04:48:34;;;;;;;1.02;1.02;;;14.00;99.90;;;;;;5029341;28;20277;-91
2021/06/06 04:51:05;;;;;;;2.85;1.30;;;14.00;99.90;;;;;;5027177;28;20335;-91
2021/06/06 04:53:33;;;;;;;1.80;1.25;;;14.00;99.90;;;;;;5027156;28;20262;-91
2021/06/06 04:56:00;;;;;;;1.48;1.23;;;14.00;99.90;;;;;;5034621;28;20230;-91
2021/06/06 04:58:30;;;;;;;3.35;1.23;;;14.00;99.90;;;;;;5030571;28;20211;-91
2021/06/06 05:00:56;;;;;;;2.90;1.30;;;14.00;99.90;;;;;;5032305;28;20239;-92
2021/06/06 05:03:31;;;;;;;2.50;1.55;;;14.00;99.90;;;;;;5031112;28;20214;-92
2021/06/06 05:05:57;;;;;;;2.40;1.42;;;14.00;99.90;;;;;;5027033;28;20727;-92
2021/06/06 05:08:24;;;;;;;1.35;1.20;;;13.90;99.90;;;;;;5028867;28;20294;-91
2021/06/06 05:10:53;;;;;;;3.05;1.40;;;13.90;99.90;;;;;;5021146;28;20219;-91
2021/06/06 05:13:21;;;;;;;2.00;1.30;;;14.00;99.90;;;;;;5028827;28;20210;-91
2021/06/06 05:15:49;;;;;;;1.20;1.10;;;14.10;99.90;;;;;;5028017;28;20234;-91
2021/06/06 05:18:16;;;;;;;1.73;1.33;;;14.10;99.90;;;;;;5030375;28;20207;-91
2021/06/06 05:20:45;;;;;;;1.13;1.02;;;14.20;99.90;;;;;;5023672;28;20274;-90
2021/06/06 05:23:12;;;;;;;1.90;1.10;;;14.20;99.90;;;;;;5025187;28;20198;-90
2021/06/06 05:25:41;;;;;;;2.08;1.10;;;14.20;99.90;;;;;;5030066;28;20239;-90
2021/06/06 05:28:11;;;;;;;2.40;1.20;;;14.20;99.90;;;;;;5025419;28;20285;-91
2021/06/06 05:30:40;;;;;;;0.95;0.95;;;14.30;99.90;;;;;;5005589;28;20222;-92
2021/06/06 05:33:07;;;;;;;2.28;1.20;;;14.30;99.90;;;;;;5015927;28;20229;-92
2021/06/06 05:35:34;;;;;;;1.67;1.08;;;14.30;99.90;;;;;;5020189;28;20306;-90
2021/06/06 05:38:01;;;;;;;1.30;1.20;;;14.30;99.90;;;;;;5026864;28;20195;-91
2021/06/06 05:40:29;;;;;;;2.83;1.13;;;14.30;99.90;;;;;;5026721;28;20219;-91
2021/06/06 05:42:56;;;;;;;1.30;1.20;;;14.30;99.90;;;;;;5023307;28;20269;-90
2021/06/06 05:45:25;;;;;;;1.55;0.98;;;14.30;99.90;;;;;;5027342;28;20310;-90
2021/06/06 05:47:52;;;;;;;2.25;1.58;;;14.30;99.90;;;;;;5029869;28;20219;-90
2021/06/06 05:50:24;;;;;;;1.77;1.15;;;14.40;99.90;;;;;;5020453;28;20233;-90
2021/06/06 05:52:51;;;;;;;2.70;1.15;;;14.30;99.90;;;;;;5017941;28;20565;-90
2021/06/06 05:55:19;;;;;;;2.03;1.70;;;14.30;99.90;;;;;;5021308;28;20234;-91
2021/06/06 05:57:46;;;;;;;1.00;1.00;;;14.30;99.90;;;;;;5022503;28;20218;-91
2021/06/06 06:00:18;;;;;;;1.85;1.20;;;14.20;99.90;;;;;;5019478;28;20233;-89
2021/06/06 06:02:46;;;;;;;1.95;1.33;;;14.30;99.90;;;;;;5022486;28;20200;-90
2021/06/06 06:05:17;;;;;;;2.10;1.13;;;14.30;99.90;;;;;;5004822;28;20226;-90
2021/06/06 06:07:44;;;;;;;1.20;1.08;;;14.30;99.90;;;;;;5003673;28;20223;-91
2021/06/06 06:10:12;;;;;;;1.17;1.10;;;14.30;99.90;;;;;;5006058;28;20222;-90
2021/06/06 06:12:39;;;;;;;1.30;1.20;;;14.30;99.90;;;;;;5028117;28;20643;-90
2021/06/06 06:15:06;;;;;;;3.72;1.42;;;14.40;99.90;;;;;;5008071;28;20230;-91
2021/06/06 06:17:33;;;;;;;2.08;1.20;;;14.40;99.90;;;;;;5004215;28;20749;-91
2021/06/06 06:20:01;;;;;;;2.22;1.30;;;14.40;99.90;;;;;;5004849;28;20658;-91
2021/06/06 06:22:27;;;;;;;2.47;1.40;;;14.40;99.90;;;;;;5024851;28;20666;-92
2021/06/06 06:24:55;;;;;;;1.30;1.20;;;14.30;99.90;;;;;;5033365;28;20272;-91
2021/06/06 06:27:21;;;;;;;2.65;1.30;;;14.40;99.90;;;;;;5018782;28;20223;-90
2021/06/06 06:29:48;;;;;;;1.95;1.10;;;14.40;99.90;;;;;;5003802;28;20226;-92
2021/06/06 06:32:14;;;;;;;1.83;1.60;;;14.40;99.90;;;;;;5025068;28;20655;-90
2021/06/06 06:34:41;;;;;;;1.33;1.15;;;14.40;99.90;;;;;;5029629;28;20230;-90
2021/06/06 06:37:09;;;;;;;3.45;1.50;;;14.50;99.90;;;;;;5004530;28;20214;-89
2021/06/06 06:39:36;;;;;;;1.98;1.40;;;14.50;99.90;;;;;;5008261;28;20273;-90
2021/06/06 06:42:03;;;;;;;1.70;1.20;;;14.60;99.90;;;;;;5007142;28;20213;-90
2021/06/06 06:44:30;;;;;;;2.75;1.60;;;14.60;99.90;;;;;;4997743;28;20268;-90
2021/06/06 06:46:56;;;;;;;4.63;2.45;;;14.70;99.90;;;;;;5017201;28;20249;-90
2021/06/06 06:49:24;;;;;;;2.13;1.70;;;14.70;99.90;;;;;;5000404;28;20211;-91
2021/06/06 06:51:50;;;;;;;3.08;1.48;;;14.70;99.90;;;;;;4983369;28;20294;-92
2021/06/06 06:54:18;;;;;;;1.48;1.38;;;14.80;99.90;;;;;;5009713;28;20228;-90
2021/06/06 06:56:45;;;;;;;3.28;2.15;;;14.80;99.90;;;;;;5011922;28;20207;-90
2021/06/06 06:59:11;;;;;;;1.63;1.10;;;15.00;99.90;;;;;;5017671;28;20230;-89
2021/06/06 07:01:38;;;;;;;2.25;1.30;;;15.10;99.90;;;;;;5011137;28;20203;-90
2021/06/06 07:04:04;;;;;;;2.03;1.30;;;15.20;99.90;;;;;;5020160;28;20195;-90
2021/06/06 07:06:32;;;;;;;1.88;1.10;;;15.20;99.90;;;;;;5020084;28;20229;-90
2021/06/06 07:08:58;;;;;;;2.30;1.00;;;15.30;99.90;;;;;;5017435;28;20223;-90
2021/06/06 07:11:28;;;;;;;0.98;0.90;;;15.30;99.90;;;;;;5026140;28;20237;-90
2021/06/06 07:13:55;;;;;;;0.93;0.90;;;15.30;99.90;;;;;;5026857;28;20203;-90
2021/06/06 07:16:21;;;;;;;0.95;0.93;;;15.40;99.90;;;;;;5024831;28;20257;-92
2021/06/06 07:18:49;;;;;;;0.80;0.75;;;15.30;99.90;;;;;;5018459;28;20196;-90
2021/06/06 07:21:18;;;;;;;2.03;1.10;;;15.30;99.90;;;;;;5024745;28;20227;-90
2021/06/06 07:23:45;;;;;;;1.20;1.10;;;15.30;99.90;;;;;;5019275;28;20206;-90
2021/06/06 07:26:15;;;;;;;2.38;1.10;;;15.20;99.90;;;;;;5000977;28;20309;-90
2021/06/06 07:28:43;;;;;;;1.85;1.30;;;15.40;99.90;;;;;;5032370;28;20231;-90
2021/06/06 07:31:10;;;;;;;1.30;1.20;;;15.40;99.90;;;;;;5003981;28;20230;-90
2021/06/06 07:33:42;;;;;;;1.73;1.13;;;15.50;99.90;;;;;;5019066;28;20196;-90
2021/06/06 07:36:10;;;;;;;1.30;1.20;;;15.50;99.90;;;;;;5020341;28;20290;-90
2021/06/06 07:38:37;;;;;;;2.00;1.20;;;15.60;99.90;;;;;;5011315;28;20239;-91
2021/06/06 07:41:04;;;;;;;3.38;1.20;;;15.40;99.90;;;;;;5018296;28;20290;-91
2021/06/06 07:43:32;;;;;;;1.30;0.82;;;15.40;99.90;;;;;;5023610;28;20227;-92
2021/06/06 07:46:00;;;;;;;1.48;1.13;;;15.50;99.90;;;;;;5022231;28;20219;-91
2021/06/06 07:48:35;;;;;;;1.20;1.10;;;15.50;99.90;;;;;;5015283;28;20587;-91
2021/06/06 07:51:01;;;;;;;1.13;1.02;;;15.60;99.90;;;;;;5015400;28;20234;-90
2021/06/06 07:53:28;;;;;;;1.10;0.93;;;15.60;99.90;;;;;;5017280;28;20226;-91
2021/06/06 07:55:56;;;;;;;2.00;1.05;;;15.60;99.90;;;;;;5022332;28;20218;-91
2021/06/06 07:58:25;;;;;;;0.90;0.82;;;15.60;99.90;;;;;;5016023;28;20207;-90
2021/06/06 08:00:52;;;;;;;1.10;1.00;;;15.80;99.90;;;;;;5016557;28;20239;-91
2021/06/06 08:03:20;;;;;;;1.00;1.00;;;15.80;99.90;;;;;;5017733;28;20286;-91
2021/06/06 08:05:48;;;;;;;1.42;1.00;;;15.90;99.30;;;;;;5020678;28;20785;-93
2021/06/06 08:08:15;;;;;;;1.00;0.90;;;16.00;99.00;;;;;;5007917;28;20609;-91
2021/06/06 08:10:55;;;;;;;1.23;1.13;;;16.10;98.80;;;;;;5012495;28;20223;-90
2021/06/06 08:13:22;;;;;;;1.52;1.30;;;16.20;98.70;;;;;;5019712;28;20668;-90
2021/06/06 08:15:50;;;;;;;1.52;1.42;;;16.30;98.00;;;;;;5010360;28;20227;-93
2021/06/06 08:18:25;;;;;;;1.23;1.10;;;16.60;97.80;;;;;;5024052;28;20202;-89
2021/06/06 08:20:54;;;;;;;0.98;0.98;;;16.70;97.70;;;;;;5022567;28;20246;-89
2021/06/06 08:23:22;;;;;;;1.58;1.25;;;17.00;96.30;;;;;;5025610;28;20202;-91
2021/06/06 08:25:49;;;;;;;1.20;1.10;;;17.10;95.90;;;;;;5017662;28;20686;-89
2021/06/06 08:28:18;;;;;;;2.30;0.85;;;17.00;95.50;;;;;;5030145;28;20225;-87
2021/06/06 08:30:48;;;;;;;0.98;0.90;;;17.10;95.20;;;;;;5026227;28;20232;-89
2021/06/06 08:33:24;;;;;;;0.90;0.90;;;17.10;95.40;;;;;;5022471;28;20761;-90
2021/06/06 08:35:54;;;;;;;0.98;0.88;;;17.20;94.90;;;;;;5009472;28;20239;-90
2021/06/06 08:38:22;;;;;;;1.10;1.02;;;17.30;93.90;;;;;;5018699;28;20215;-91
2021/06/06 08:40:54;;;;;;;1.10;1.00;;;17.30;93.70;;;;;;5020014;28;20691;-90
2021/06/06 08:43:23;;;;;;;3.17;1.20;;;17.30;94.20;;;;;;5023372;28;20595;-89
2021/06/06 08:45:54;;;;;;;3.38;1.27;;;17.30;93.90;;;;;;5029357;28;20222;-91
2021/06/06 08:48:23;;;;;;;1.13;0.90;;;17.30;94.80;;;;;;5016840;28;20573;-92
2021/06/06 08:51:21;;;;;;;1.00;1.00;;;17.50;93.80;;;;;;5017116;28;20234;-92
2021/06/06 08:53:57;;;;;;;2.55;1.00;;;17.60;93.70;;;;;;4999831;28;20224;-92
2021/06/06 08:56:28;;;;;;;2.17;1.20;;;17.60;93.30;;;;;;5027618;28;20304;-92
2021/06/06 08:59:00;;;;;;;1.70;1.02;;;17.80;93.10;;;;;;5016628;28;20617;-92
2021/06/06 09:01:36;;;;;;;1.67;1.05;;;17.90;92.80;;;;;;5016510;28;20242;-90
2021/06/06 09:04:08;;;;;;;0.95;0.90;;;17.90;92.90;;;;;;5021439;28;20202;-89
2021/06/06 09:06:44;;;;;;;1.08;1.02;;;18.00;92.50;;;;;;5018750;28;20215;-90
2021/06/06 09:09:11;;;;;;;1.27;0.98;;;17.90;92.20;;;;;;5026635;28;20678;-89
2021/06/06 09:11:38;;;;;;;3.00;1.15;;;18.00;92.20;;;;;;5019927;28;20226;-90
2021/06/06 09:14:05;;;;;;;1.73;1.05;;;17.80;92.10;;;;;;5023033;28;20286;-90
2021/06/06 09:16:35;;;;;;;2.42;1.20;;;17.70;93.60;;;;;;5019740;28;20218;-87
2021/06/06 09:19:15;;;;;;;1.15;1.05;;;17.80;93.20;;;;;;5031231;28;20209;-86
2021/06/06 09:21:49;;;;;;;1.40;1.02;;;17.90;92.90;;;;;;5020262;28;20223;-88
2021/06/06 09:24:24;;;;;;;1.13;1.13;;;17.90;92.90;;;;;;5010784;28;20266;-89
2021/06/06 09:26:50;;;;;;;0.90;0.90;;;18.10;92.90;;;;;;5033247;28;20212;-87
2021/06/06 09:29:21;;;;;;;1.40;1.10;;;18.10;92.20;;;;;;5039271;28;20231;-88
2021/06/06 09:31:48;;;;;;;0.90;0.90;;;18.10;92.20;;;;;;5030734;28;20211;-88
2021/06/06 09:34:22;;;;;;;2.25;1.15;;;18.10;92.20;;;;;;5026277;28;20203;-88
2021/06/06 09:37:02;;;;;;;1.10;1.00;;;18.00;92.20;;;;;;5034737;28;20201;-88
2021/06/06 09:39:34;;;;;;;1.20;1.10;;;17.80;93.10;;;;;;5023643;28;20202;-87
2021/06/06 09:42:01;;;;;;;0.82;0.82;;;17.80;92.80;;;;;;5034565;28;20202;-88
2021/06/06 09:44:31;;;;;;;1.13;0.80;;;17.80;92.70;;;;;;5041196;28;20195;-88
2021/06/06 09:47:14;;;;;;;0.90;0.90;;;17.80;92.90;;;;;;5029865;28;20655;-88
2021/06/06 09:49:44;;;;;;;2.97;0.90;;;17.80;92.10;;;;;;5030378;28;20235;-88
2021/06/06 09:52:14;;;;;;;1.25;1.00;;;17.80;92.30;;;;;;5025013;28;20239;-87
2021/06/06 09:54:45;;;;;;;1.10;1.00;;;17.80;92.80;;;;;;5020655;28;20228;-90
2021/06/06 09:57:23;;;;;;;1.13;1.02;;;18.00;92.90;;;;;;5023826;28;20207;-88
2021/06/06 09:59:50;;;;;;;1.20;0.95;;;18.10;92.50;;;;;;5009622;28;20274;-90
2021/06/06 10:02:29;;;;;;;0.70;0.70;;;18.30;92.20;;;;;;5009294;28;20211;-90
2021/06/06 10:05:04;;;;;;;1.40;1.20;;;18.20;92.20;;;;;;5016702;28;20690;-91
2021/06/06 10:07:34;;;;;;;1.23;0.90;;;18.10;92.20;;;;;;5021510;28;20211;-90
2021/06/06 10:10:07;;;;;;;1.10;1.00;;;17.90;92.00;;;;;;5026641;28;20229;-87
2021/06/06 10:12:39;;;;;;;1.50;0.98;;;17.80;92.30;;;;;;5027454;28;20189;-87
2021/06/06 10:18:19;;;;;;;0.80;0.80;;;18.00;92.00;;;;;;4998299;28;20234;-90
2021/06/06 10:20:52;;;;;;;0.75;0.75;;;18.10;92.20;;;;;;5015706;28;20227;-89
2021/06/06 10:23:32;;;;;;;0.90;0.88;;;18.30;92.20;;;;;;5019882;28;20198;-88
2021/06/06 10:26:02;;;;;;;1.10;1.00;;;18.50;91.40;;;;;;5017720;28;20289;-91
2021/06/06 10:28:32;;;;;;;1.10;1.10;;;18.50;91.30;;;;;;5027302;28;20226;-90
2021/06/06 10:31:05;;;;;;;0.80;0.80;;;18.80;90.70;;;;;;5019950;28;20219;-89
2021/06/06 10:37:01;;;;;;;1.20;1.10;;;18.60;90.00;;;;;;5023982;28;20270;-89
2021/06/06 10:39:30;;;;;;;1.00;0.90;;;18.60;90.60;;;;;;5021080;28;20240;-87
2021/06/06 10:42:02;;;;;;;1.17;0.82;;;18.30;90.40;;;;;;5022085;28;20278;-84
2021/06/06 10:44:36;;;;;;;2.15;1.27;;;18.40;91.30;;;;;;5014810;28;20227;-86
2021/06/06 10:47:09;;;;;;;0.93;0.93;;;18.30;90.60;;;;;;5012291;28;20703;-88
2021/06/06 10:49:40;;;;;;;1.42;1.05;;;18.30;90.70;;;;;;5006400;28;20608;-89
2021/06/06 10:52:20;;;;;;;0.90;0.90;;;18.30;90.50;;;;;;5017536;28;20261;-85
2021/06/06 10:54:49;;;;;;;1.08;0.98;;;18.30;90.40;;;;;;5454859;23;20729;-89
2021/06/06 10:57:30;;;;;;;2.00;0.95;;;18.20;90.00;;;;;;5010834;28;20203;-88
2021/06/06 11:00:24;;;;;;;1.25;1.15;;;18.10;90.20;;;;;;5018576;28;20600;-90
2021/06/06 11:02:57;;;;;;;1.10;1.10;;;18.10;90.60;;;;;;5016834;28;20258;-87
2021/06/06 11:05:36;;;;;;;0.90;0.90;;;18.10;91.00;;;;;;5010369;28;20227;-89
2021/06/06 11:08:15;;;;;;;1.58;1.10;;;17.90;91.40;;;;;;5012873;28;20249;-91
2021/06/06 11:10:41;;;;;;;0.90;0.88;;;17.70;91.60;;;;;;5008841;28;20225;-90
2021/06/06 11:13:14;;;;;;;1.10;1.10;;;17.80;92.10;;;;;;5008701;28;20207;-91
2021/06/06 11:18:46;;;;;;;1.05;0.80;;;17.80;92.10;;;;;;5021945;28;20286;-92
2021/06/06 11:21:13;;;;;;;2.53;1.02;;;18.00;91.50;;;;;;5016111;28;20240;-88
2021/06/06 11:23:55;;;;;;;2.33;1.02;;;18.10;91.30;;;;;;5014836;28;20246;-88
2021/06/06 11:26:25;;;;;;;1.88;0.80;;;18.30;91.20;;;;;;5005149;28;20227;-88
2021/06/06 11:29:20;;;;;;;1.20;0.90;;;18.40;91.00;;;;;;5017318;28;20581;-88
2021/06/06 11:32:19;;;;;;;0.65;0.65;;;18.50;90.70;;;;;;5019475;28;20242;-89
2021/06/06 11:34:49;;;;;;;1.45;1.00;;;18.40;90.80;;;;;;5020369;28;20588;-89
2021/06/06 11:37:35;;;;;;;0.93;0.85;;;18.50;90.80;;;;;;5023416;28;20202;-89
2021/06/06 11:40:09;;;;;;;1.48;1.10;;;18.60;91.10;;;;;;5017727;28;20218;-91
2021/06/06 11:42:39;;;;;;;1.25;1.05;;;18.70;90.70;;;;;;5018631;28;20206;-90
2021/06/06 11:45:10;;;;;;;0.90;0.90;;;18.70;91.00;;;;;;5008955;28;20310;-89
2021/06/06 11:48:19;;;;;;;1.60;0.88;;;18.80;91.00;;;;;;5020368;28;20211;-89
2021/06/06 11:50:48;;;;;;;1.73;0.90;;;18.70;91.30;;;;;;5007028;28;20290;-88
2021/06/06 11:55:56;;;;;;;0.82;0.82;;;18.80;91.50;;;;;;5432159;23;20240;-87
2021/06/06 11:59:12;;;;;;;1.00;0.95;;;18.90;91.50;;;;;;4987271;28;20263;-87
2021/06/06 12:01:51;;;;;;;0.98;0.98;;;18.70;90.70;;;;;;5005239;28;20262;-87
2021/06/06 12:04:28;;;;;;;2.60;1.45;;;18.80;90.80;;;;;;4982337;28;20228;-91
2021/06/06 12:06:54;;;;;;;1.00;1.00;;;18.60;91.70;;;;;;4981476;28;20200;-91
2021/06/06 12:09:24;;;;;;;0.90;0.90;;;18.60;91.20;;;;;;4983780;28;20228;-90
2021/06/06 12:11:53;;;;;;;1.35;1.08;;;18.50;91.80;;;;;;4991601;28;20243;-88
2021/06/06 12:14:26;;;;;;;0.90;0.90;;;18.70;91.20;;;;;;4985847;28;20200;-90
2021/06/06 12:16:55;;;;;;;1.45;0.90;;;18.90;90.60;;;;;;4987787;28;20242;-89
2021/06/06 12:19:24;;;;;;;2.85;1.20;;;19.00;90.70;;;;;;4985312;28;20196;-89
2021/06/06 12:32:12;;;;;;;3.05;1.10;;;20.10;87.70;;;;;;4986106;28;20192;-91
2021/06/06 12:34:39;;;;;;;2.63;1.33;;;20.30;85.60;;;;;;4970517;28;20746;-87
2021/06/06 12:59:50;;;;;;;0.95;0.95;;;20.10;84.50;;;;;;5008216;28;20232;-89
2021/06/06 13:02:20;;;;;;;30.85;27.95;;;20.30;82.60;;;;;;5006287;28;20192;-89
2021/06/06 13:11:29;;;;;;;1.55;1.23;;;21.00;77.40;;;;;;5013275;28;20199;-90
2021/06/06 13:14:04;;;;;;;1.20;1.10;;;21.40;75.40;;;;;;4995170;28;20647;-90
2021/06/06 13:16:35;;;;;;;1.00;0.73;;;21.30;73.70;;;;;;5001618;28;20227;-91
2021/06/06 13:19:26;;;;;;;1.25;0.90;;;21.00;77.20;;;;;;4986004;28;20544;-90
2021/06/06 13:29:03;;;;;;;0.88;0.80;;;19.90;82.10;;;;;;5008352;28;20266;-87
2021/06/06 13:31:34;;;;;;;1.00;1.00;;;19.30;85.60;;;;;;5000040;28;20314;-91
2021/06/06 13:34:06;;;;;;;2.42;1.00;;;19.00;87.10;;;;;;4998892;28;20207;-90
2021/06/06 13:36:34;;;;;;;1.05;1.05;;;18.90;88.80;;;;;;5006419;28;20773;-91
2021/06/06 13:39:13;;;;;;;1.67;1.10;;;18.80;89.70;;;;;;5006731;28;20290;-89
2021/06/06 13:41:41;;;;;;;1.05;1.05;;;18.90;90.10;;;;;;5014944;28;20555;-90
2021/06/06 13:44:07;;;;;;;0.90;0.90;;;19.20;88.20;;;;;;5015914;28;20283;-91
2021/06/06 13:49:25;;;;;;;1.23;1.23;;;19.80;85.20;;;;;;4997178;28;20219;-92
2021/06/06 13:52:01;;;;;;;0.95;0.95;;;19.90;83.90;;;;;;5002766;28;20223;-89
2021/06/06 14:03:59;;;;;;;1.20;1.10;;;19.20;87.70;;;;;;4996933;28;20195;-90
2021/06/06 14:06:25;;;;;;;0.90;0.90;;;19.10;87.20;;;;;;5004811;28;20235;-90
2021/06/06 14:08:52;;;;;;;2.55;1.05;;;19.00;89.10;;;;;;4991426;28;20293;-90
2021/06/06 14:11:22;;;;;;;1.80;0.90;;;18.90;90.10;;;;;;4993347;28;20295;-91
2021/06/06 14:13:48;;;;;;;1.23;0.90;;;18.90;90.10;;;;;;4982204;28;20712;-90
2021/06/06 14:16:17;;;;;;;2.65;0.90;;;19.00;89.80;;;;;;4993535;28;20213;-90
2021/06/06 14:24:55;;;;;;;0.70;0.70;;;19.90;85.40;;;;;;4964837;28;20637;-92
2021/06/06 14:27:22;;;;;;;0.88;0.77;;;20.30;82.40;;;;;;5001665;28;20298;-89